Time;durP1;ratioP1;P1;durP2;ratioP2;P2;SDS_P1;SDS_P2;PMS_P1;PMS_P2;Temp;Humidity;BMP_temperature;BMP_pressure;BME280_temperature;BME280_humidity;BME280_pressure;Samples;Min_cycle;Max_cycle;Signal;HPM_P1;HPM_P2
2021/11/13 00:02:12;;;;;;;1.13;0.60;;;;;;;10.83;81.36;100677.97;5049587;28;20092;-83
2021/11/13 00:04:39;;;;;;;2.15;0.60;;;;;;;10.82;81.45;100698.53;5052858;28;20452;-83
2021/11/13 00:07:06;;;;;;;2.58;0.40;;;;;;;10.83;81.29;100697.38;5034181;28;20040;-82
2021/11/13 00:09:33;;;;;;;2.63;0.65;;;;;;;10.80;81.52;100709.94;5036542;28;20076;-82
2021/11/13 00:12:00;;;;;;;2.22;0.65;;;;;;;10.81;81.67;100713.53;5034319;28;20099;-81
2021/11/13 00:14:29;;;;;;;1.35;0.75;;;;;;;10.82;81.54;100715.16;5057200;28;20036;-82
2021/11/13 00:16:56;;;;;;;0.93;0.43;;;;;;;10.82;81.57;100704.88;5037290;28;20052;-83
2021/11/13 00:19:23;;;;;;;1.92;0.70;;;;;;;10.82;81.64;100704.06;5037073;28;20122;-83
2021/11/13 00:21:50;;;;;;;1.48;0.93;;;;;;;10.80;81.73;100698.09;5050843;28;20040;-83
2021/11/13 00:24:17;;;;;;;0.88;0.60;;;;;;;10.80;81.57;100698.09;5035545;28;20064;-82
2021/11/13 00:26:44;;;;;;;1.33;0.57;;;;;;;10.79;82.02;100702.81;5036281;28;20165;-82
2021/11/13 00:29:11;;;;;;;1.10;0.70;;;;;;;10.82;81.82;100702.13;5035143;28;20106;-82
2021/11/13 00:31:38;;;;;;;1.05;0.82;;;;;;;10.83;81.85;100711.22;5034393;28;20039;-81
2021/11/13 00:34:05;;;;;;;3.53;0.88;;;;;;;10.85;81.87;100717.22;5017391;28;20042;-82
2021/11/13 00:36:32;;;;;;;4.57;1.50;;;;;;;10.84;82.12;100723.91;5034869;28;20033;-82
2021/11/13 00:38:59;;;;;;;2.58;0.82;;;;;;;10.86;82.18;100743.75;5054656;28;20064;-83
2021/11/13 00:41:26;;;;;;;1.65;0.50;;;;;;;10.86;81.86;100757.59;5032917;28;20045;-82
2021/11/13 00:43:53;;;;;;;4.93;1.17;;;;;;;10.87;82.17;100767.53;5033378;28;20784;-82
2021/11/13 00:46:20;;;;;;;1.38;0.75;;;;;;;10.88;82.15;100764.41;5032887;28;20061;-81
2021/11/13 00:48:47;;;;;;;1.90;0.80;;;;;;;10.93;81.87;100771.69;5034786;28;20094;-82
2021/11/13 00:51:14;;;;;;;2.67;0.60;;;;;;;10.95;82.17;100769.38;5054487;28;20044;-82
2021/11/13 00:53:41;;;;;;;2.03;0.98;;;;;;;10.99;82.06;100764.75;5049662;28;20051;-83
2021/11/13 00:56:08;;;;;;;0.93;0.75;;;;;;;10.98;82.33;100750.13;5049616;28;20655;-82
2021/11/13 00:58:36;;;;;;;1.58;1.08;;;;;;;11.01;82.32;100740.31;5052077;28;20094;-82
2021/11/13 01:01:04;;;;;;;2.08;0.98;;;;;;;11.02;82.33;100739.13;5055850;28;20083;-82
2021/11/13 01:03:33;;;;;;;2.83;1.27;;;;;;;11.03;82.53;100732.44;5033346;28;20049;-82
2021/11/13 01:06:00;;;;;;;3.20;0.68;;;;;;;11.03;82.60;100737.97;5036139;28;20469;-82
2021/11/13 01:08:27;;;;;;;1.67;0.80;;;;;;;11.06;82.67;100745.59;5036089;28;20518;-83
2021/11/13 01:10:54;;;;;;;4.65;1.20;;;;;;;11.04;82.99;100753.44;5054016;28;20051;-82
2021/11/13 01:13:22;;;;;;;2.33;1.15;;;;;;;11.07;82.75;100766.59;5051817;28;20124;-83
2021/11/13 01:15:49;;;;;;;2.85;1.40;;;;;;;11.07;82.87;100772.13;5051830;28;20064;-83
2021/11/13 01:18:16;;;;;;;4.30;1.50;;;;;;;11.11;82.57;100783.34;5032758;28;20144;-83
2021/11/13 01:20:43;;;;;;;7.70;2.55;;;;;;;11.11;82.95;100786.94;5051303;28;20088;-82
2021/11/13 01:23:10;;;;;;;2.42;1.10;;;;;;;11.14;82.92;100786.22;5048225;28;20052;-83
2021/11/13 01:25:37;;;;;;;2.47;1.30;;;;;;;11.14;82.89;100782.66;5051624;28;20488;-82
2021/11/13 01:28:04;;;;;;;2.08;1.30;;;;;;;11.15;82.60;100771.19;5023251;28;20128;-83
2021/11/13 01:30:31;;;;;;;6.35;1.67;;;;;;;11.13;82.94;100776.28;5016628;28;20072;-80
2021/11/13 01:32:58;;;;;;;2.25;1.33;;;;;;;11.14;83.06;100771.56;5033507;28;20500;-81
2021/11/13 01:35:26;;;;;;;4.38;1.20;;;;;;;11.11;83.01;100778.59;5054504;28;20036;-82
2021/11/13 01:37:53;;;;;;;6.47;2.50;;;;;;;11.09;83.46;100774.56;5034670;28;20393;-83
2021/11/13 01:40:23;;;;;;;3.65;1.38;;;;;;;11.08;83.42;100767.41;5049496;28;20068;-83
2021/11/13 01:42:54;;;;;;;4.18;1.27;;;;;;;11.04;83.65;100778.38;5051623;28;20127;-83
2021/11/13 01:45:21;;;;;;;2.28;0.95;;;;;;;11.02;83.82;100792.56;5034784;28;20152;-83
2021/11/13 01:47:48;;;;;;;1.75;0.88;;;;;;;11.05;83.53;100813.25;5051807;28;20095;-82
2021/11/13 01:50:22;;;;;;;1.42;0.80;;;;;;;11.04;83.67;100821.91;5049727;28;20029;-83
2021/11/13 01:52:49;;;;;;;2.88;1.15;;;;;;;11.07;83.21;100816.47;5032035;28;20052;-82
2021/11/13 01:55:19;;;;;;;3.42;0.85;;;;;;;11.08;83.38;100818.09;5034291;28;20365;-82
2021/11/13 01:57:47;;;;;;;1.20;0.88;;;;;;;11.11;83.33;100833.22;5052096;28;20068;-83
2021/11/13 02:00:23;;;;;;;6.22;1.42;;;;;;;11.11;83.49;100839.56;5053234;28;20127;-82
2021/11/13 02:02:50;;;;;;;2.58;0.93;;;;;;;11.12;83.33;100843.94;5036596;28;20040;-82
2021/11/13 02:05:17;;;;;;;3.83;0.85;;;;;;;11.10;83.69;100835.16;5038283;28;20203;-82
2021/11/13 02:07:44;;;;;;;4.03;0.82;;;;;;;11.10;83.53;100843.47;5036513;28;20134;-82
2021/11/13 02:10:12;;;;;;;2.47;0.60;;;;;;;11.09;83.55;100830.81;5054068;28;20695;-82
2021/11/13 02:12:40;;;;;;;3.70;0.82;;;;;;;11.08;83.53;100820.84;5033164;28;20132;-82
2021/11/13 02:15:10;;;;;;;4.80;0.88;;;;;;;11.06;83.74;100825.13;5055290;28;20064;-83
2021/11/13 02:17:38;;;;;;;1.48;0.40;;;;;;;11.04;83.72;100819.13;5037331;28;20060;-81
2021/11/13 02:20:22;;;;;;;3.00;0.70;;;;;;;11.05;83.69;100831.81;5037963;28;20131;-83
2021/11/13 02:22:51;;;;;;;1.80;0.50;;;;;;;11.04;83.80;100847.63;5055223;28;20037;-82
2021/11/13 02:25:21;;;;;;;3.08;0.93;;;;;;;11.03;84.02;100857.13;5034608;28;20067;-83
2021/11/13 02:27:48;;;;;;;6.05;3.03;;;;;;;11.05;83.66;100868.66;5035516;28;20103;-83
2021/11/13 02:30:16;;;;;;;0.85;0.35;;;;;;;11.08;83.54;100881.81;5054190;28;20048;-83
2021/11/13 02:32:44;;;;;;;3.28;0.50;;;;;;;11.10;83.47;100887.81;5055655;28;20042;-83
2021/11/13 02:35:13;;;;;;;0.98;0.50;;;;;;;11.10;83.41;100887.00;5055229;28;20453;-83
2021/11/13 02:37:42;;;;;;;3.38;1.13;;;;;;;11.09;83.40;100883.44;5054414;28;20444;-82
2021/11/13 02:40:10;;;;;;;3.33;0.70;;;;;;;11.06;nan;100870.28;5037400;28;20469;-82
2021/11/13 02:42:39;;;;;;;0.75;0.70;;;;;;;11.06;83.53;100864.75;5054126;28;20123;-83
2021/11/13 02:45:10;;;;;;;2.40;0.75;;;;;;;11.09;83.46;100852.97;5051488;28;20118;-83
2021/11/13 02:47:48;;;;;;;4.03;1.00;;;;;;;11.10;83.26;100851.78;5052249;28;20086;-82
2021/11/13 02:50:17;;;;;;;2.08;0.60;;;;;;;11.10;83.37;100862.88;5052826;28;20071;-83
2021/11/13 02:52:49;;;;;;;3.95;0.50;;;;;;;11.09;83.34;100869.59;5019323;28;20480;-82
2021/11/13 02:55:16;;;;;;;0.38;0.30;;;;;;;11.09;83.36;100866.81;5056527;28;20071;-83
2021/11/13 02:57:43;;;;;;;1.50;0.50;;;;;;;11.09;83.25;100880.66;5052859;28;20044;-82
2021/11/13 03:00:13;;;;;;;0.95;0.50;;;;;;;11.06;83.45;100892.44;5054655;28;20037;-82
2021/11/13 03:02:40;;;;;;;3.35;0.70;;;;;;;11.06;83.57;100902.72;5035517;28;20511;-83
2021/11/13 03:05:29;;;;;;;1.10;0.98;;;;;;;11.06;83.48;100908.25;5036583;28;20041;-82
2021/11/13 03:07:58;;;;;;;5.20;0.73;;;;;;;11.03;83.56;100904.22;5037451;28;21027;-82
2021/11/13 03:10:28;;;;;;;2.03;0.85;;;;;;;11.04;83.54;100903.03;5050463;28;20040;-83
2021/11/13 03:12:55;;;;;;;1.30;0.50;;;;;;;11.00;83.95;100910.44;5052496;28;20044;-82
2021/11/13 03:15:23;;;;;;;1.35;0.68;;;;;;;10.99;84.08;100914.34;5035889;28;20072;-83
2021/11/13 03:17:52;;;;;;;1.50;0.63;;;;;;;10.99;83.95;100903.25;5050452;28;20127;-82
2021/11/13 03:20:26;;;;;;;1.58;0.80;;;;;;;10.97;84.08;100900.03;5053619;28;20443;-82
2021/11/13 03:22:55;;;;;;;1.55;0.55;;;;;;;10.98;84.18;100896.13;5031115;28;20075;-82
2021/11/13 03:25:26;;;;;;;3.28;1.13;;;;;;;10.93;84.36;100899.91;5055884;28;20036;-82
2021/11/13 03:27:57;;;;;;;4.97;0.70;;;;;;;10.92;84.58;100905.81;5056306;28;20131;-83
2021/11/13 03:30:25;;;;;;;3.10;0.60;;;;;;;10.94;84.45;100914.56;5049800;28;20702;-83
2021/11/13 03:32:52;;;;;;;1.25;0.63;;;;;;;10.95;84.33;100924.50;5051390;28;20049;-83
2021/11/13 03:35:27;;;;;;;1.05;0.45;;;;;;;10.95;84.56;100919.78;5052043;28;20091;-82
2021/11/13 03:37:56;;;;;;;3.35;0.40;;;;;;;10.95;84.36;100927.28;5055130;28;20045;-82
2021/11/13 03:40:23;;;;;;;1.65;0.45;;;;;;;10.94;84.37;100939.50;5021680;28;20086;-82
2021/11/13 03:42:50;;;;;;;0.77;0.40;;;;;;;10.91;84.48;100929.09;5049722;28;20062;-83
2021/11/13 03:45:17;;;;;;;3.17;0.43;;;;;;;10.92;84.33;100930.72;5030589;28;20057;-82
2021/11/13 03:47:44;;;;;;;0.63;0.52;;;;;;;10.93;84.34;100926.81;5053830;28;20036;-82
2021/11/13 03:50:11;;;;;;;2.38;0.50;;;;;;;10.92;84.34;100930.72;5052039;28;20040;-82
2021/11/13 03:52:38;;;;;;;2.22;0.47;;;;;;;10.92;84.23;100925.19;5051780;28;20142;-82
2021/11/13 03:55:05;;;;;;;2.15;0.40;;;;;;;10.96;84.04;100928.91;5031388;28;20044;-82
2021/11/13 03:57:32;;;;;;;1.73;0.40;;;;;;;10.93;84.14;100932.34;5052459;28;20453;-82
2021/11/13 03:59:59;;;;;;;0.88;0.20;;;;;;;10.92;84.23;100939.84;5051398;28;20052;-82
2021/11/13 04:02:26;;;;;;;1.15;0.30;;;;;;;10.90;83.88;100942.16;5053136;28;20558;-82
2021/11/13 04:04:53;;;;;;;3.55;0.70;;;;;;;10.92;84.04;100941.81;5032516;28;20044;-83
2021/11/13 04:07:20;;;;;;;1.92;0.75;;;;;;;10.95;83.76;100953.03;5035104;28;20476;-82
2021/11/13 04:09:47;;;;;;;0.70;0.20;;;;;;;10.95;83.61;100953.03;5035785;28;20067;-82
2021/11/13 04:12:14;;;;;;;1.40;0.20;;;;;;;10.95;83.66;100961.34;5034679;28;20511;-83
2021/11/13 04:14:42;;;;;;;0.52;0.30;;;;;;;10.92;83.42;100959.25;5052463;28;20106;-82
2021/11/13 04:17:10;;;;;;;0.45;0.22;;;;;;;10.92;83.26;100958.44;5053030;28;20876;-82
2021/11/13 04:19:38;;;;;;;3.00;0.22;;;;;;;10.90;83.37;100960.75;5052406;28;20051;-83
2021/11/13 04:22:05;;;;;;;1.17;0.20;;;;;;;10.86;83.43;100951.47;5033215;28;20036;-83
2021/11/13 04:24:33;;;;;;;0.52;0.20;;;;;;;10.84;83.46;100940.75;5036235;28;20037;-82
2021/11/13 04:27:00;;;;;;;0.70;0.25;;;;;;;10.82;83.39;100942.25;5034029;28;20451;-82
2021/11/13 04:29:27;;;;;;;1.13;0.10;;;;;;;10.82;83.37;100942.25;5053800;28;20069;-82
2021/11/13 04:31:54;;;;;;;1.85;0.47;;;;;;;10.83;83.18;100950.19;5050637;28;20951;-82
2021/11/13 04:34:24;;;;;;;0.50;0.30;;;;;;;10.83;83.25;100954.94;5052542;28;20051;-82
2021/11/13 04:36:54;;;;;;;0.65;0.13;;;;;;;10.81;83.12;100954.47;5049064;28;20557;-82
2021/11/13 04:39:23;;;;;;;1.02;0.20;;;;;;;10.80;83.21;100959.19;5033509;28;20080;-82
2021/11/13 04:41:53;;;;;;;1.20;0.20;;;;;;;10.80;83.13;100966.72;5049076;28;20052;-81
2021/11/13 04:44:20;;;;;;;0.43;0.20;;;;;;;10.77;83.08;100973.75;5052260;28;20029;-82
2021/11/13 04:46:47;;;;;;;0.35;0.10;;;;;;;10.78;83.19;100980.06;5050235;28;20087;-83
2021/11/13 04:49:14;;;;;;;1.23;0.20;;;;;;;10.77;83.42;100979.28;5033497;28;20113;-82
2021/11/13 04:51:42;;;;;;;2.55;0.40;;;;;;;10.76;83.48;100977.66;5050106;28;20123;-82
2021/11/13 04:54:09;;;;;;;0.32;0.20;;;;;;;10.74;83.55;100973.63;5051992;28;20040;-83
2021/11/13 04:56:37;;;;;;;1.88;0.85;;;;;;;10.69;83.96;100971.88;5052443;28;20073;-82
2021/11/13 04:59:05;;;;;;;1.95;0.30;;;;;;;10.64;84.00;100977.63;5052825;28;20118;-82
2021/11/13 05:01:32;;;;;;;2.70;0.40;;;;;;;10.56;84.21;100972.97;5051461;28;20305;-82
2021/11/13 05:04:00;;;;;;;3.42;0.40;;;;;;;10.55;84.26;100978.84;5017253;28;20048;-82
2021/11/13 05:06:29;;;;;;;0.95;0.35;;;;;;;10.48;84.76;100986.88;5050867;28;20049;-82
2021/11/13 05:08:57;;;;;;;3.55;0.40;;;;;;;10.47;84.70;100999.91;5049814;28;20040;-82
2021/11/13 05:11:24;;;;;;;0.50;0.30;;;;;;;10.42;84.83;101000.13;5050925;28;20036;-82
2021/11/13 05:13:53;;;;;;;0.30;0.20;;;;;;;10.42;84.75;101015.91;5035353;28;20092;-82
2021/11/13 05:16:20;;;;;;;1.38;0.65;;;;;;;10.40;85.01;101022.56;5032857;28;20634;-82
2021/11/13 05:18:47;;;;;;;3.25;0.50;;;;;;;10.37;85.29;101014.16;5053196;28;20044;-82
2021/11/13 05:21:14;;;;;;;1.92;0.40;;;;;;;10.39;85.08;101020.97;5053221;28;20488;-82
2021/11/13 05:23:42;;;;;;;0.75;0.25;;;;;;;10.39;84.97;101020.97;5052410;28;20111;-82
2021/11/13 05:26:09;;;;;;;0.38;0.30;;;;;;;10.37;85.07;101022.47;5034201;28;20485;-82
2021/11/13 05:28:37;;;;;;;0.88;0.30;;;;;;;10.37;85.24;101028.00;5052582;28;20830;-83
2021/11/13 05:31:04;;;;;;;1.67;0.15;;;;;;;10.40;85.03;101030.88;5047770;28;20049;-82
2021/11/13 05:33:32;;;;;;;0.50;0.30;;;;;;;10.42;84.96;101035.28;5035500;28;20036;-83
2021/11/13 05:36:02;;;;;;;1.35;0.40;;;;;;;10.46;85.05;101044.53;5054904;28;20036;-82
2021/11/13 05:38:29;;;;;;;2.30;0.35;;;;;;;10.49;84.98;101060.44;5037829;28;20036;-82
2021/11/13 05:40:56;;;;;;;4.03;0.30;;;;;;;10.52;85.11;101062.56;5053930;28;20048;-83
2021/11/13 05:43:23;;;;;;;2.17;0.30;;;;;;;10.52;85.28;101062.56;5035554;28;20102;-82
2021/11/13 05:45:50;;;;;;;0.35;0.20;;;;;;;10.51;85.51;101053.44;5034293;28;20053;-82
2021/11/13 05:48:17;;;;;;;0.95;0.60;;;;;;;10.57;85.24;101057.63;5036857;28;20041;-82
2021/11/13 05:50:45;;;;;;;0.60;0.52;;;;;;;10.61;85.18;101063.31;5055868;28;20048;-82
2021/11/13 05:53:12;;;;;;;1.00;0.25;;;;;;;10.58;85.19;101059.25;5033863;28;20060;-82
2021/11/13 05:55:40;;;;;;;1.40;0.28;;;;;;;10.58;85.36;101056.50;5038106;28;20051;-82
2021/11/13 05:58:13;;;;;;;0.20;0.20;;;;;;;10.59;85.36;101051.78;5037854;28;20048;-82
2021/11/13 06:00:39;;;;;;;2.33;0.30;;;;;;;10.60;85.42;101061.69;5035501;28;20048;-83
2021/11/13 06:03:06;;;;;;;0.73;0.38;;;;;;;10.63;85.42;101058.25;5037369;28;20044;-82
2021/11/13 06:05:33;;;;;;;1.88;0.50;;;;;;;10.62;85.49;101062.16;5035718;28;20051;-82
2021/11/13 06:08:00;;;;;;;0.20;0.20;;;;;;;10.66;85.12;101058.38;5036108;28;20048;-82
2021/11/13 06:10:27;;;;;;;0.52;0.35;;;;;;;10.66;85.16;101060.34;5035119;28;20122;-82
2021/11/13 06:12:54;;;;;;;1.67;0.20;;;;;;;10.65;85.29;101058.72;5038387;28;20087;-82
2021/11/13 06:15:21;;;;;;;0.60;0.60;;;;;;;10.62;85.19;101065.72;5034958;28;20127;-82
2021/11/13 06:17:48;;;;;;;1.38;0.13;;;;;;;10.66;85.14;101060.34;5053834;28;20037;-82
2021/11/13 06:20:15;;;;;;;2.22;0.40;;;;;;;10.68;85.36;101058.03;5056368;28;20081;-82
2021/11/13 06:22:44;;;;;;;4.32;0.52;;;;;;;10.67;85.24;101068.28;5054040;28;20041;-82
2021/11/13 06:25:11;;;;;;;2.08;0.98;;;;;;;10.70;85.13;101072.34;5055767;28;20480;-82
2021/11/13 06:27:39;;;;;;;9.38;1.38;;;;;;;10.69;85.14;101076.28;5054557;28;20044;-81
2021/11/13 06:30:09;;;;;;;1.38;0.30;;;;;;;10.72;85.23;101086.69;5054291;28;20496;-82
2021/11/13 06:32:36;;;;;;;0.90;0.30;;;;;;;10.72;85.07;101095.00;5055699;28;20067;-82
2021/11/13 06:35:05;;;;;;;2.17;0.70;;;;;;;10.72;85.23;101089.47;5053867;28;20115;-83
2021/11/13 06:37:33;;;;;;;3.50;0.43;;;;;;;10.72;85.28;101092.22;5054573;28;20064;-82
2021/11/13 06:40:00;;;;;;;1.15;0.30;;;;;;;10.71;85.25;101091.41;5054337;28;20064;-82
2021/11/13 06:42:27;;;;;;;2.50;0.60;;;;;;;10.73;85.14;101085.53;5035937;28;20123;-82
2021/11/13 06:44:54;;;;;;;2.33;0.60;;;;;;;10.73;85.09;101093.81;5048632;28;20041;-83
2021/11/13 06:47:21;;;;;;;0.65;0.40;;;;;;;10.72;84.92;101093.00;5034961;28;20066;-82
2021/11/13 06:49:48;;;;;;;1.27;0.22;;;;;;;10.69;84.87;101101.19;5036319;28;20044;-82
2021/11/13 06:52:15;;;;;;;1.05;0.50;;;;;;;10.67;84.97;101106.28;5054535;28;20488;-82
2021/11/13 06:54:42;;;;;;;3.30;0.82;;;;;;;10.65;84.81;101114.09;5053907;28;20473;-82
2021/11/13 06:57:09;;;;;;;0.55;0.30;;;;;;;10.66;84.66;101116.53;5038550;28;20349;-82
2021/11/13 06:59:36;;;;;;;0.82;0.30;;;;;;;10.68;84.78;101119.78;5036128;28;20061;-82
2021/11/13 07:02:03;;;;;;;2.20;0.22;;;;;;;10.69;84.49;101121.41;5031933;28;20043;-81
2021/11/13 07:04:30;;;;;;;0.60;0.20;;;;;;;10.68;84.81;101116.19;5039399;28;20131;-82
2021/11/13 07:06:57;;;;;;;0.50;0.25;;;;;;;10.67;84.83;101122.88;5052104;28;20106;-82
2021/11/13 07:09:24;;;;;;;1.67;0.77;;;;;;;10.68;84.85;101119.78;5033626;28;20045;-82
2021/11/13 07:11:51;;;;;;;1.05;0.75;;;;;;;10.67;85.11;101125.66;5016828;28;20072;-82
2021/11/13 07:14:18;;;;;;;0.95;0.52;;;;;;;10.62;85.54;101131.38;5033302;28;20486;-82
2021/11/13 07:16:44;;;;;;;3.65;0.50;;;;;;;10.62;85.36;101126.66;5050944;28;20032;-82
2021/11/13 07:19:11;;;;;;;12.73;1.27;;;;;;;10.65;85.45;101136.22;5051782;28;20060;-82
2021/11/13 07:21:40;;;;;;;1.65;0.70;;;;;;;10.67;85.41;101136.72;5052175;28;20056;-82
2021/11/13 07:24:09;;;;;;;1.17;0.40;;;;;;;10.68;85.49;101141.91;5052368;28;20584;-82
2021/11/13 07:26:36;;;;;;;3.95;0.85;;;;;;;10.70;85.48;101138.81;5053808;28;20084;-82
2021/11/13 07:29:06;;;;;;;3.22;0.70;;;;;;;10.71;85.24;101151.50;5036218;28;20127;-83
2021/11/13 07:31:33;;;;;;;2.13;1.15;;;;;;;10.71;85.28;101159.81;5034174;28;20160;-82
2021/11/13 07:34:01;;;;;;;6.05;1.42;;;;;;;10.68;85.40;101172.38;5053151;28;20048;-82
2021/11/13 07:36:29;;;;;;;3.63;0.95;;;;;;;10.69;85.67;101176.78;5032702;28;20044;-82
2021/11/13 07:38:56;;;;;;;6.18;1.35;;;;;;;10.69;85.55;101170.44;5053558;28;20110;-82
2021/11/13 07:41:24;;;;;;;4.32;1.17;;;;;;;10.73;85.65;101182.44;5031325;28;20052;-82
2021/11/13 07:43:52;;;;;;;5.57;1.05;;;;;;;10.72;85.64;101191.91;5052529;28;20480;-82
2021/11/13 07:46:20;;;;;;;3.72;1.27;;;;;;;10.74;85.74;101195.16;5052277;28;20049;-82
2021/11/13 07:48:47;;;;;;;5.30;1.80;;;;;;;10.78;85.64;101201.63;5039009;28;20053;-82
2021/11/13 07:51:18;;;;;;;4.68;1.20;;;;;;;10.82;85.35;101203.41;5032948;28;20048;-82
2021/11/13 07:53:45;;;;;;;2.83;1.25;;;;;;;10.85;85.48;101207.47;5033456;28;20530;-83
2021/11/13 07:56:12;;;;;;;5.32;1.10;;;;;;;10.86;85.20;101198.00;5033271;28;20048;-83
2021/11/13 07:58:39;;;;;;;3.08;1.08;;;;;;;10.85;85.54;101196.41;5053203;28;20082;-82
2021/11/13 08:01:06;;;;;;;3.63;0.82;;;;;;;10.85;85.40;101197.22;5054163;28;20114;-82
2021/11/13 08:03:33;;;;;;;3.08;0.70;;;;;;;10.86;85.24;101195.22;5053396;28;20488;-82
2021/11/13 08:06:00;;;;;;;8.73;1.58;;;;;;;10.82;85.53;101199.84;5053811;28;20035;-82
2021/11/13 08:08:27;;;;;;;2.60;0.95;;;;;;;10.83;85.22;101209.75;5050960;28;20126;-83
2021/11/13 08:10:54;;;;;;;2.83;1.00;;;;;;;10.84;85.48;101211.38;5052120;28;20045;-82
2021/11/13 08:13:20;;;;;;;4.53;0.98;;;;;;;10.84;85.36;101217.72;5052965;28;20056;-82
2021/11/13 08:15:48;;;;;;;2.72;0.80;;;;;;;10.83;85.61;101215.28;5054402;28;20727;-82
2021/11/13 08:18:16;;;;;;;2.67;1.08;;;;;;;10.83;85.37;101218.06;5053624;28;20086;-81
2021/11/13 08:20:45;;;;;;;4.22;0.88;;;;;;;10.85;85.31;101215.78;5035838;28;20045;-79
2021/11/13 08:23:13;;;;;;;4.90;1.33;;;;;;;10.89;85.43;101222.25;5027665;28;20071;-79
2021/11/13 08:25:42;;;;;;;6.10;1.42;;;;;;;10.94;85.35;101219.28;5053020;28;20128;-79
2021/11/13 08:28:11;;;;;;;3.25;0.95;;;;;;;10.94;85.19;101222.06;5057679;28;20040;-79
2021/11/13 08:30:43;;;;;;;5.55;2.40;;;;;;;10.94;84.97;101220.09;5048377;28;20155;-80
2021/11/13 08:33:10;;;;;;;5.32;0.50;;;;;;;10.96;85.01;101225.34;5053799;28;20037;-79
2021/11/13 08:35:39;;;;;;;3.78;0.80;;;;;;;11.01;84.74;101236.22;5034428;28;20503;-79
2021/11/13 08:38:09;;;;;;;1.65;0.90;;;;;;;11.05;84.71;101239.91;5049505;28;20060;-79
2021/11/13 08:40:36;;;;;;;3.63;1.55;;;;;;;11.03;84.37;101242.22;5053097;28;20123;-79
2021/11/13 08:43:03;;;;;;;6.03;0.80;;;;;;;11.06;84.50;101255.41;5053138;28;20581;-79
2021/11/13 08:45:30;;;;;;;2.65;0.88;;;;;;;11.08;84.42;101255.06;5054188;28;20065;-79
2021/11/13 08:47:58;;;;;;;1.45;0.30;;;;;;;11.09;84.08;101254.75;5019028;28;20476;-79
2021/11/13 08:50:29;;;;;;;3.20;0.60;;;;;;;11.08;84.23;101250.34;5054721;28;20128;-79
2021/11/13 08:53:00;;;;;;;2.13;1.00;;;;;;;11.08;84.11;101255.88;5036022;28;20045;-79
2021/11/13 08:55:29;;;;;;;3.65;1.10;;;;;;;11.09;84.18;101257.50;5053500;28;20040;-79
2021/11/13 08:57:57;;;;;;;3.78;1.05;;;;;;;11.10;84.02;101270.19;5054396;28;20045;-79
2021/11/13 09:00:40;;;;;;;6.93;0.57;;;;;;;11.10;83.97;101259.13;5051108;28;20127;-79
2021/11/13 09:03:10;;;;;;;5.35;0.90;;;;;;;11.09;83.82;101263.06;5053159;28;20081;-79
2021/11/13 09:05:37;;;;;;;6.75;0.98;;;;;;;11.10;83.95;101253.56;5036828;28;20044;-80
2021/11/13 09:08:05;;;;;;;2.67;0.55;;;;;;;11.12;83.82;101262.34;5058047;28;21883;-79
2021/11/13 09:10:32;;;;;;;3.38;0.90;;;;;;;11.14;84.12;101260.09;5066026;28;20074;-79
2021/11/13 09:12:59;;;;;;;4.55;3.05;;;;;;;11.15;83.83;101270.00;5048157;28;20045;-78
2021/11/13 09:15:29;;;;;;;4.05;1.50;;;;;;;11.20;83.82;101263.47;5043790;28;20095;-79
2021/11/13 09:17:56;;;;;;;5.63;1.85;;;;;;;11.21;83.65;101265.06;5062811;28;20064;-79
2021/11/13 09:20:24;;;;;;;3.65;0.63;;;;;;;11.24;83.88;101265.22;5065498;28;20064;-79
2021/11/13 09:22:52;;;;;;;2.45;0.82;;;;;;;11.27;83.65;101270.09;5048480;28;20041;-79
2021/11/13 09:25:19;;;;;;;6.32;2.75;;;;;;;11.28;83.50;101271.69;5048103;28;20702;-79
2021/11/13 09:27:47;;;;;;;4.03;1.60;;;;;;;11.28;83.38;101276.47;5046968;28;20102;-79
2021/11/13 09:30:23;;;;;;;5.28;1.98;;;;;;;11.29;83.30;101287.19;5045896;28;20044;-79
2021/11/13 09:32:50;;;;;;;2.55;1.05;;;;;;;11.30;83.56;101286.06;5060627;28;20840;-81
2021/11/13 09:35:19;;;;;;;4.82;1.70;;;;;;;11.33;83.40;101284.56;5059682;28;20987;-81
2021/11/13 09:37:46;;;;;;;2.78;2.15;;;;;;;11.34;83.27;101275.91;5060794;28;20048;-79
2021/11/13 09:40:21;;;;;;;3.65;1.75;;;;;;;11.36;83.30;101283.88;5055867;28;20037;-79
2021/11/13 09:42:51;;;;;;;7.45;2.50;;;;;;;11.35;83.19;101285.03;5059680;28;20551;-79
2021/11/13 09:45:19;;;;;;;6.97;2.53;;;;;;;11.39;83.28;101295.09;5054735;28;20099;-79
2021/11/13 09:47:50;;;;;;;6.70;2.28;;;;;;;11.40;83.34;101288.44;5057688;28;20111;-79
2021/11/13 09:50:22;;;;;;;9.57;3.08;;;;;;;11.43;83.33;101284.97;5039128;28;20040;-79
2021/11/13 09:52:52;;;;;;;5.25;2.20;;;;;;;11.46;83.05;101292.59;5036302;28;20103;-79
2021/11/13 09:55:21;;;;;;;5.90;2.30;;;;;;;11.48;83.07;101292.28;5041699;28;20747;-79
2021/11/13 09:57:49;;;;;;;8.88;2.65;;;;;;;11.49;83.12;101305.78;5059768;28;20057;-79
2021/11/13 10:00:23;;;;;;;4.70;1.80;;;;;;;11.50;83.15;101295.53;5035951;28;20032;-79
2021/11/13 10:02:51;;;;;;;4.50;1.50;;;;;;;11.50;83.09;101303.84;5051119;28;20076;-79
2021/11/13 10:05:19;;;;;;;3.83;1.70;;;;;;;11.50;83.21;101312.16;5038100;28;20048;-78
2021/11/13 10:07:46;;;;;;;7.07;2.00;;;;;;;11.52;83.37;101320.94;5053900;28;20099;-79
2021/11/13 10:10:27;;;;;;;4.63;1.90;;;;;;;11.54;83.17;101322.22;5060718;28;20044;-79
2021/11/13 10:12:54;;;;;;;5.07;1.70;;;;;;;11.53;82.75;101322.56;5042699;28;20064;-79
2021/11/13 10:15:32;;;;;;;8.00;2.08;;;;;;;11.51;82.90;101319.34;5057595;28;20037;-79
2021/11/13 10:18:21;;;;;;;8.30;2.50;;;;;;;11.47;82.74;101321.16;5066043;28;20119;-79
2021/11/13 10:21:12;;;;;;;10.93;2.47;;;;;;;11.51;82.98;101314.59;5028883;28;20472;-79
2021/11/13 10:23:49;;;;;;;8.80;3.97;;;;;;;11.52;82.87;101321.75;5051415;28;20095;-79
2021/11/13 10:26:35;;;;;;;13.52;4.93;;;;;;;11.59;82.87;101335.91;5052173;28;20476;-79
2021/11/13 10:29:07;;;;;;;9.05;4.07;;;;;;;11.64;82.69;101326.56;5035640;28;20037;-79
2021/11/13 10:31:40;;;;;;;10.98;4.45;;;;;;;11.67;82.58;101328.69;5051775;28;20048;-79
2021/11/13 10:34:11;;;;;;;9.40;4.38;;;;;;;11.71;82.69;101334.38;5052057;28;20039;-78
2021/11/13 10:36:48;;;;;;;12.30;4.32;;;;;;;11.69;82.72;101334.72;5017424;28;20064;-79
2021/11/13 10:39:24;;;;;;;10.63;4.03;;;;;;;11.72;82.69;101336.00;5055668;28;20124;-79
2021/11/13 10:41:54;;;;;;;8.63;3.40;;;;;;;11.74;82.68;101339.25;5032724;28;20498;-79
2021/11/13 10:44:35;;;;;;;8.95;3.53;;;;;;;11.71;82.45;101339.91;5048165;28;20037;-79
2021/11/13 10:47:14;;;;;;;9.57;4.15;;;;;;;11.67;82.42;101342.53;5057620;28;20083;-79
2021/11/13 10:49:42;;;;;;;12.32;3.50;;;;;;;11.72;82.50;101336.00;5051611;28;20052;-79
2021/11/13 10:52:12;;;;;;;10.05;4.45;;;;;;;11.76;82.47;101336.94;5053566;28;20076;-81
2021/11/13 10:54:45;;;;;;;12.57;4.50;;;;;;;11.82;82.43;101341.13;5036109;28;20033;-79
2021/11/13 10:57:12;;;;;;;7.03;2.90;;;;;;;11.86;82.38;101337.34;5044779;28;20039;-79
2021/11/13 10:59:44;;;;;;;8.55;3.50;;;;;;;11.85;82.46;101323.81;5049554;28;20032;-79
2021/11/13 11:02:17;;;;;;;15.65;3.38;;;;;;;11.92;82.54;101333.22;5015989;28;20094;-79
2021/11/13 11:04:46;;;;;;;8.80;3.65;;;;;;;12.00;82.41;101331.50;5033560;28;20128;-79
2021/11/13 11:07:24;;;;;;;8.25;3.35;;;;;;;12.05;82.36;101328.53;5049968;28;20173;-79
2021/11/13 11:10:10;;;;;;;8.25;3.75;;;;;;;12.07;82.10;101315.13;5054819;28;20045;-79
2021/11/13 11:12:41;;;;;;;8.88;3.85;;;;;;;12.14;82.29;101315.38;5052171;28;20041;-79
2021/11/13 11:15:11;;;;;;;8.63;4.82;;;;;;;12.21;82.17;101310.06;5050923;28;20040;-79
2021/11/13 11:17:39;;;;;;;7.28;3.17;;;;;;;12.27;82.01;101303.16;5050140;28;20127;-79
2021/11/13 11:20:10;;;;;;;8.43;3.38;;;;;;;12.36;81.88;101295.56;5047839;28;20049;-79
2021/11/13 11:22:37;;;;;;;7.47;4.43;;;;;;;12.46;81.99;101300.66;5033176;28;20045;-79
2021/11/13 11:25:12;;;;;;;8.75;2.88;;;;;;;12.48;81.54;101303.09;5035073;28;20060;-79
2021/11/13 11:27:44;;;;;;;7.50;3.65;;;;;;;12.47;81.54;101307.81;5049620;28;20566;-79
2021/11/13 11:30:23;;;;;;;7.65;3.95;;;;;;;12.41;81.53;101302.84;5049336;28;20037;-80
2021/11/13 11:32:59;;;;;;;13.93;3.95;;;;;;;12.42;81.56;101305.28;5049924;28;20139;-78